Live aus Altenrhein
LIVE
LSZR 260550Z 32005KT 9999 -RA BKN007 03/03 Q1008 NOSIG RMK B

People´s Info Center:

Öffnungszeiten Mo-Fr, 8-18 Uhr

 

info@peoples.ch

 
Aus Österreich:

T: +43 (0)5572 203 610

 

Aus CH / LI / DE:

T: +41 (0)71 858 51 60

 

Weitere Flugangebote

Flughafen St.Gallen-Altenrhein.

 

Rundflüge

Ab Flughafen St. Gallen - Altenrhein.

1. August Rundflug

Über die Schweizer Alpen.

Flugangstseminare

Macht das Fliegen noch angenehmer.

Taxiflüge

Ihr eigenes Flugtaxi.